sensor_id;sensor_type;location;lat;lon;timestamp;pressure;altitude;pressure_sealevel;temperature;humidity
10988;BME280;5547;42.672;23.230;2023-09-19T00:01:34;93672.88;;;11.26;100.00
10988;BME280;5547;42.672;23.230;2023-09-19T00:04:34;93673.25;;;11.28;100.00
10988;BME280;5547;42.672;23.230;2023-09-19T00:07:35;93677.88;;;11.20;100.00
10988;BME280;5547;42.672;23.230;2023-09-19T00:10:36;93682.28;;;11.34;100.00
10988;BME280;5547;42.672;23.230;2023-09-19T00:13:38;93686.13;;;11.33;100.00
10988;BME280;5547;42.672;23.230;2023-09-19T00:16:38;93650.38;;;11.00;100.00
10988;BME280;5547;42.672;23.230;2023-09-19T00:19:39;93625.72;;;10.96;100.00
10988;BME280;5547;42.672;23.230;2023-09-19T00:22:42;93680.47;;;11.27;100.00
10988;BME280;5547;42.672;23.230;2023-09-19T00:25:42;93670.63;;;11.24;100.00
10988;BME280;5547;42.672;23.230;2023-09-19T00:28:43;93666.88;;;11.18;100.00
10988;BME280;5547;42.672;23.230;2023-09-19T00:31:43;93655.63;;;11.07;100.00
10988;BME280;5547;42.672;23.230;2023-09-19T00:34:44;93623.34;;;10.70;100.00
10988;BME280;5547;42.672;23.230;2023-09-19T00:37:44;93662.16;;;10.99;100.00
10988;BME280;5547;42.672;23.230;2023-09-19T00:40:46;93631.63;;;10.76;100.00
10988;BME280;5547;42.672;23.230;2023-09-19T00:43:47;93669.41;;;10.98;100.00
10988;BME280;5547;42.672;23.230;2023-09-19T00:46:52;93669.50;;;10.91;100.00
10988;BME280;5547;42.672;23.230;2023-09-19T00:49:53;93667.22;;;10.89;100.00
10988;BME280;5547;42.672;23.230;2023-09-19T00:52:54;93617.28;;;10.66;100.00
10988;BME280;5547;42.672;23.230;2023-09-19T00:55:56;93649.47;;;10.79;100.00
10988;BME280;5547;42.672;23.230;2023-09-19T00:58:57;93668.09;;;10.79;100.00
10988;BME280;5547;42.672;23.230;2023-09-19T01:01:57;93640.13;;;10.64;100.00
10988;BME280;5547;42.672;23.230;2023-09-19T01:05:00;93644.72;;;10.60;100.00
10988;BME280;5547;42.672;23.230;2023-09-19T01:08:01;93661.31;;;10.71;100.00
10988;BME280;5547;42.672;23.230;2023-09-19T01:11:20;93663.63;;;10.69;100.00
10988;BME280;5547;42.672;23.230;2023-09-19T01:14:36;93652.63;;;10.67;100.00
10988;BME280;5547;42.672;23.230;2023-09-19T01:17:46;93671.13;;;10.78;100.00
10988;BME280;5547;42.672;23.230;2023-09-19T01:24:19;93669.28;;;10.75;100.00
10988;BME280;5547;42.672;23.230;2023-09-19T01:30:27;93669.31;;;10.71;100.00
10988;BME280;5547;42.672;23.230;2023-09-19T01:33:55;93663.34;;;10.60;100.00
10988;BME280;5547;42.672;23.230;2023-09-19T01:36:57;93669.75;;;10.66;100.00
10988;BME280;5547;42.672;23.230;2023-09-19T01:40:02;93674.31;;;10.65;100.00
10988;BME280;5547;42.672;23.230;2023-09-19T01:43:28;93665.91;;;10.67;100.00
10988;BME280;5547;42.672;23.230;2023-09-19T01:46:37;93665.91;;;10.67;100.00
10988;BME280;5547;42.672;23.230;2023-09-19T01:49:44;93667.03;;;10.69;100.00
10988;BME280;5547;42.672;23.230;2023-09-19T01:53:06;93652.44;;;10.47;100.00
10988;BME280;5547;42.672;23.230;2023-09-19T01:56:12;93659.13;;;10.62;100.00
10988;BME280;5547;42.672;23.230;2023-09-19T01:59:22;93634.66;;;10.40;100.00
10988;BME280;5547;42.672;23.230;2023-09-19T02:02:25;93664.94;;;10.50;100.00
10988;BME280;5547;42.672;23.230;2023-09-19T02:05:26;93621.22;;;10.09;100.00
10988;BME280;5547;42.672;23.230;2023-09-19T02:08:28;93605.63;;;10.15;100.00
10988;BME280;5547;42.672;23.230;2023-09-19T02:11:29;93660.00;;;10.52;100.00
10988;BME280;5547;42.672;23.230;2023-09-19T02:14:30;93659.34;;;10.37;100.00
10988;BME280;5547;42.672;23.230;2023-09-19T02:17:31;93663.84;;;10.47;100.00
10988;BME280;5547;42.672;23.230;2023-09-19T02:20:31;93656.25;;;10.46;100.00
10988;BME280;5547;42.672;23.230;2023-09-19T02:23:33;93627.63;;;10.16;100.00
10988;BME280;5547;42.672;23.230;2023-09-19T02:26:33;93531.03;;;9.46;100.00
10988;BME280;5547;42.672;23.230;2023-09-19T02:29:36;93656.81;;;10.23;100.00
10988;BME280;5547;42.672;23.230;2023-09-19T02:32:37;93659.09;;;10.21;100.00
10988;BME280;5547;42.672;23.230;2023-09-19T02:35:38;93608.84;;;9.88;100.00
10988;BME280;5547;42.672;23.230;2023-09-19T02:38:39;93595.69;;;9.78;100.00
10988;BME280;5547;42.672;23.230;2023-09-19T02:41:39;93644.00;;;10.10;100.00
10988;BME280;5547;42.672;23.230;2023-09-19T02:44:41;93633.44;;;10.03;100.00
10988;BME280;5547;42.672;23.230;2023-09-19T02:47:42;93609.66;;;9.82;100.00
10988;BME280;5547;42.672;23.230;2023-09-19T02:50:43;93564.75;;;9.53;100.00
10988;BME280;5547;42.672;23.230;2023-09-19T02:53:44;93626.28;;;9.93;100.00
10988;BME280;5547;42.672;23.230;2023-09-19T02:56:44;93592.34;;;9.66;100.00
10988;BME280;5547;42.672;23.230;2023-09-19T02:59:45;93624.44;;;9.86;100.00
10988;BME280;5547;42.672;23.230;2023-09-19T03:02:46;93617.25;;;9.87;100.00
10988;BME280;5547;42.672;23.230;2023-09-19T03:05:46;93580.59;;;9.64;100.00
10988;BME280;5547;42.672;23.230;2023-09-19T03:08:47;93611.97;;;9.80;100.00
10988;BME280;5547;42.672;23.230;2023-09-19T03:11:50;93604.75;;;9.80;100.00
10988;BME280;5547;42.672;23.230;2023-09-19T03:14:50;93596.13;;;9.69;100.00
10988;BME280;5547;42.672;23.230;2023-09-19T03:17:50;93592.72;;;9.65;100.00
10988;BME280;5547;42.672;23.230;2023-09-19T03:20:54;93593.09;;;9.67;100.00
10988;BME280;5547;42.672;23.230;2023-09-19T03:23:55;93611.22;;;9.79;100.00
10988;BME280;5547;42.672;23.230;2023-09-19T03:26:55;93619.63;;;9.71;100.00
10988;BME280;5547;42.672;23.230;2023-09-19T03:29:56;93609.72;;;9.75;100.00
10988;BME280;5547;42.672;23.230;2023-09-19T03:32:59;93591.63;;;9.59;100.00
10988;BME280;5547;42.672;23.230;2023-09-19T03:36:02;93610.47;;;9.79;100.00
10988;BME280;5547;42.672;23.230;2023-09-19T03:39:04;93580.31;;;9.51;100.00
10988;BME280;5547;42.672;23.230;2023-09-19T03:42:05;93608.25;;;9.70;100.00
10988;BME280;5547;42.672;23.230;2023-09-19T03:45:08;93591.63;;;9.59;100.00
10988;BME280;5547;42.672;23.230;2023-09-19T03:48:12;93615.84;;;9.68;100.00
10988;BME280;5547;42.672;23.230;2023-09-19T03:51:13;93586.44;;;9.41;100.00
10988;BME280;5547;42.672;23.230;2023-09-19T03:54:13;93628.00;;;9.69;100.00
10988;BME280;5547;42.672;23.230;2023-09-19T03:57:14;93590.59;;;9.42;100.00
10988;BME280;5547;42.672;23.230;2023-09-19T04:00:16;93621.94;;;9.68;100.00
10988;BME280;5547;42.672;23.230;2023-09-19T04:03:21;93517.00;;;8.87;100.00
10988;BME280;5547;42.672;23.230;2023-09-19T04:06:21;93637.41;;;9.77;100.00
10988;BME280;5547;42.672;23.230;2023-09-19T04:09:22;93521.09;;;9.02;100.00
10988;BME280;5547;42.672;23.230;2023-09-19T04:12:22;93647.59;;;9.86;100.00
10988;BME280;5547;42.672;23.230;2023-09-19T04:15:23;93648.34;;;9.86;100.00
10988;BME280;5547;42.672;23.230;2023-09-19T04:18:24;93650.94;;;9.97;100.00
10988;BME280;5547;42.672;23.230;2023-09-19T04:21:25;93595.72;;;9.71;100.00
10988;BME280;5547;42.672;23.230;2023-09-19T04:24:26;93612.25;;;9.93;100.00
10988;BME280;5547;42.672;23.230;2023-09-19T04:27:27;93642.03;;;10.18;100.00
10988;BME280;5547;42.672;23.230;2023-09-19T04:30:28;93626.38;;;10.27;100.00
10988;BME280;5547;42.672;23.230;2023-09-19T04:33:28;93572.31;;;10.03;100.00
10988;BME280;5547;42.672;23.230;2023-09-19T04:36:28;93622.31;;;10.57;100.00
10988;BME280;5547;42.672;23.230;2023-09-19T04:39:30;93582.19;;;10.44;100.00
10988;BME280;5547;42.672;23.230;2023-09-19T04:42:30;93636.78;;;10.90;100.00
10988;BME280;5547;42.672;23.230;2023-09-19T04:45:30;93627.13;;;11.04;100.00
10988;BME280;5547;42.672;23.230;2023-09-19T04:48:31;93604.28;;;11.06;100.00
10988;BME280;5547;42.672;23.230;2023-09-19T04:51:31;93628.50;;;11.46;100.00
10988;BME280;5547;42.672;23.230;2023-09-19T04:54:34;93632.72;;;11.71;100.00
10988;BME280;5547;42.672;23.230;2023-09-19T04:57:34;93568.94;;;11.60;100.00
10988;BME280;5547;42.672;23.230;2023-09-19T05:00:36;93630.88;;;12.18;100.00
10988;BME280;5547;42.672;23.230;2023-09-19T05:03:37;93624.91;;;12.34;100.00
10988;BME280;5547;42.672;23.230;2023-09-19T05:06:38;93627.28;;;12.72;100.00
10988;BME280;5547;42.672;23.230;2023-09-19T05:09:38;93641.03;;;12.91;100.00
10988;BME280;5547;42.672;23.230;2023-09-19T05:12:40;93650.75;;;13.21;100.00
10988;BME280;5547;42.672;23.230;2023-09-19T05:15:40;93644.72;;;13.17;100.00
10988;BME280;5547;42.672;23.230;2023-09-19T05:18:41;93640.69;;;13.49;100.00
10988;BME280;5547;42.672;23.230;2023-09-19T05:21:42;93647.63;;;13.62;100.00
10988;BME280;5547;42.672;23.230;2023-09-19T05:24:42;93646.56;;;13.76;100.00
10988;BME280;5547;42.672;23.230;2023-09-19T05:27:44;93647.25;;;13.80;100.00
10988;BME280;5547;42.672;23.230;2023-09-19T05:30:44;93645.09;;;13.92;100.00
10988;BME280;5547;42.672;23.230;2023-09-19T05:33:44;93638.41;;;14.00;100.00
10988;BME280;5547;42.672;23.230;2023-09-19T05:36:45;93640.06;;;13.77;100.00
10988;BME280;5547;42.672;23.230;2023-09-19T05:39:45;93557.47;;;13.30;100.00
10988;BME280;5547;42.672;23.230;2023-09-19T05:42:46;93584.84;;;13.71;100.00
10988;BME280;5547;42.672;23.230;2023-09-19T05:45:47;93587.91;;;13.53;100.00
10988;BME280;5547;42.672;23.230;2023-09-19T05:48:47;93568.13;;;13.66;100.00
10988;BME280;5547;42.672;23.230;2023-09-19T05:51:50;93594.13;;;13.99;100.00
10988;BME280;5547;42.672;23.230;2023-09-19T05:54:54;93624.19;;;14.19;100.00
10988;BME280;5547;42.672;23.230;2023-09-19T05:57:54;93596.88;;;14.28;100.00
10988;BME280;5547;42.672;23.230;2023-09-19T06:00:54;93612.22;;;14.40;100.00
10988;BME280;5547;42.672;23.230;2023-09-19T06:03:58;93626.09;;;14.81;100.00
10988;BME280;5547;42.672;23.230;2023-09-19T06:07:00;93598.56;;;14.67;100.00
10988;BME280;5547;42.672;23.230;2023-09-19T06:10:00;93629.72;;;14.74;100.00
10988;BME280;5547;42.672;23.230;2023-09-19T06:13:04;93601.69;;;14.79;100.00
10988;BME280;5547;42.672;23.230;2023-09-19T06:16:05;93507.31;;;14.33;100.00
10988;BME280;5547;42.672;23.230;2023-09-19T06:19:06;93593.81;;;15.01;100.00
10988;BME280;5547;42.672;23.230;2023-09-19T06:22:10;93615.97;;;15.43;100.00
10988;BME280;5547;42.672;23.230;2023-09-19T06:25:12;93612.56;;;15.01;100.00
10988;BME280;5547;42.672;23.230;2023-09-19T06:28:19;93602.78;;;15.36;100.00
10988;BME280;5547;42.672;23.230;2023-09-19T06:31:24;93623.25;;;15.43;100.00
10988;BME280;5547;42.672;23.230;2023-09-19T06:34:26;93621.69;;;15.71;100.00
10988;BME280;5547;42.672;23.230;2023-09-19T06:37:30;93611.19;;;15.89;100.00
10988;BME280;5547;42.672;23.230;2023-09-19T06:40:30;93544.03;;;15.54;100.00
10988;BME280;5547;42.672;23.230;2023-09-19T06:43:31;93614.13;;;16.30;100.00
10988;BME280;5547;42.672;23.230;2023-09-19T06:46:32;93591.44;;;16.09;100.00
10988;BME280;5547;42.672;23.230;2023-09-19T06:49:35;93535.84;;;15.96;100.00
10988;BME280;5547;42.672;23.230;2023-09-19T06:52:35;93637.50;;;16.77;100.00
10988;BME280;5547;42.672;23.230;2023-09-19T06:55:36;93637.09;;;16.66;100.00
10988;BME280;5547;42.672;23.230;2023-09-19T06:58:36;93638.41;;;16.61;100.00
10988;BME280;5547;42.672;23.230;2023-09-19T07:01:37;93634.88;;;16.64;100.00
10988;BME280;5547;42.672;23.230;2023-09-19T07:04:38;93647.34;;;16.58;100.00
10988;BME280;5547;42.672;23.230;2023-09-19T07:07:38;93650.69;;;16.97;100.00
10988;BME280;5547;42.672;23.230;2023-09-19T07:10:40;93618.81;;;17.08;100.00
10988;BME280;5547;42.672;23.230;2023-09-19T07:13:48;93648.16;;;17.02;100.00
10988;BME280;5547;42.672;23.230;2023-09-19T07:16:49;93613.69;;;17.01;100.00
10988;BME280;5547;42.672;23.230;2023-09-19T07:19:49;93588.34;;;16.67;100.00
10988;BME280;5547;42.672;23.230;2023-09-19T07:22:50;93579.25;;;16.87;100.00
10988;BME280;5547;42.672;23.230;2023-09-19T07:25:51;93587.25;;;16.99;100.00
10988;BME280;5547;42.672;23.230;2023-09-19T07:28:51;93629.28;;;17.37;100.00
10988;BME280;5547;42.672;23.230;2023-09-19T07:31:53;93591.25;;;16.95;100.00
10988;BME280;5547;42.672;23.230;2023-09-19T07:34:54;93643.19;;;17.36;100.00
10988;BME280;5547;42.672;23.230;2023-09-19T07:37:55;93567.13;;;17.04;100.00
10988;BME280;5547;42.672;23.230;2023-09-19T07:41:00;93633.53;;;17.48;100.00
10988;BME280;5547;42.672;23.230;2023-09-19T07:44:01;93616.91;;;17.40;100.00
10988;BME280;5547;42.672;23.230;2023-09-19T07:47:01;93645.34;;;17.50;100.00
10988;BME280;5547;42.672;23.230;2023-09-19T07:50:03;93656.03;;;17.63;100.00
10988;BME280;5547;42.672;23.230;2023-09-19T07:53:04;93610.06;;;17.48;100.00
10988;BME280;5547;42.672;23.230;2023-09-19T07:56:06;93654.56;;;18.02;100.00
10988;BME280;5547;42.672;23.230;2023-09-19T07:59:07;93646.47;;;17.93;100.00
10988;BME280;5547;42.672;23.230;2023-09-19T08:02:08;93646.13;;;17.82;100.00
10988;BME280;5547;42.672;23.230;2023-09-19T08:05:15;93592.75;;;17.49;100.00
10988;BME280;5547;42.672;23.230;2023-09-19T08:08:16;93494.31;;;16.80;100.00
10988;BME280;5547;42.672;23.230;2023-09-19T08:11:16;93548.94;;;17.39;100.00
10988;BME280;5547;42.672;23.230;2023-09-19T08:14:21;93582.28;;;17.82;100.00
10988;BME280;5547;42.672;23.230;2023-09-19T08:17:25;93585.94;;;17.67;100.00
10988;BME280;5547;42.672;23.230;2023-09-19T08:20:25;93631.91;;;18.31;100.00
10988;BME280;5547;42.672;23.230;2023-09-19T08:23:26;93625.09;;;18.58;100.00
10988;BME280;5547;42.672;23.230;2023-09-19T08:26:27;93622.09;;;18.56;100.00
10988;BME280;5547;42.672;23.230;2023-09-19T08:29:28;93635.69;;;18.71;100.00
10988;BME280;5547;42.672;23.230;2023-09-19T08:32:29;93575.38;;;18.40;100.00
10988;BME280;5547;42.672;23.230;2023-09-19T08:35:30;93647.56;;;18.92;100.00
10988;BME280;5547;42.672;23.230;2023-09-19T08:38:34;93609.50;;;19.08;100.00
10988;BME280;5547;42.672;23.230;2023-09-19T08:41:35;93636.94;;;19.16;100.00
10988;BME280;5547;42.672;23.230;2023-09-19T08:44:36;93638.44;;;18.98;100.00
10988;BME280;5547;42.672;23.230;2023-09-19T08:47:45;93618.81;;;19.07;100.00
10988;BME280;5547;42.672;23.230;2023-09-19T08:50:52;93560.13;;;18.46;100.00
10988;BME280;5547;42.672;23.230;2023-09-19T08:54:09;93578.69;;;18.63;100.00
10988;BME280;5547;42.672;23.230;2023-09-19T08:57:13;93613.13;;;18.96;100.00
10988;BME280;5547;42.672;23.230;2023-09-19T09:00:22;93628.78;;;19.43;100.00
10988;BME280;5547;42.672;23.230;2023-09-19T09:03:24;93636.31;;;19.21;100.00
10988;BME280;5547;42.672;23.230;2023-09-19T09:06:26;93607.31;;;19.58;100.00
10988;BME280;5547;42.672;23.230;2023-09-19T09:09:28;93627.06;;;19.83;100.00
10988;BME280;5547;42.672;23.230;2023-09-19T09:12:29;93575.91;;;19.79;100.00
10988;BME280;5547;42.672;23.230;2023-09-19T09:15:30;93626.69;;;20.56;100.00
10988;BME280;5547;42.672;23.230;2023-09-19T09:18:33;93624.69;;;20.81;100.00
10988;BME280;5547;42.672;23.230;2023-09-19T09:21:33;93612.16;;;20.21;100.00
10988;BME280;5547;42.672;23.230;2023-09-19T09:24:52;93607.34;;;20.25;98.18
10988;BME280;5547;42.672;23.230;2023-09-19T09:28:01;93577.00;;;19.63;97.44
10988;BME280;5547;42.672;23.230;2023-09-19T09:31:02;93597.47;;;19.88;97.35
10988;BME280;5547;42.672;23.230;2023-09-19T09:34:10;93510.59;;;19.66;94.78
10988;BME280;5547;42.672;23.230;2023-09-19T09:37:14;93531.19;;;20.35;95.46
10988;BME280;5547;42.672;23.230;2023-09-19T09:40:15;93544.25;;;20.91;84.73
10988;BME280;5547;42.672;23.230;2023-09-19T09:43:30;93574.38;;;20.84;84.78
10988;BME280;5547;42.672;23.230;2023-09-19T09:46:31;93585.78;;;21.17;85.29
10988;BME280;5547;42.672;23.230;2023-09-19T09:49:57;93573.00;;;21.03;82.11
10988;BME280;5547;42.672;23.230;2023-09-19T09:53:33;93592.50;;;21.22;86.42
10988;BME280;5547;42.672;23.230;2023-09-19T09:56:34;93584.47;;;21.28;86.79
10988;BME280;5547;42.672;23.230;2023-09-19T10:02:53;93586.47;;;21.42;80.17
10988;BME280;5547;42.672;23.230;2023-09-19T10:05:53;93491.88;;;20.88;80.58
10988;BME280;5547;42.672;23.230;2023-09-19T10:09:06;93560.31;;;21.09;82.73
10988;BME280;5547;42.672;23.230;2023-09-19T10:12:20;93571.97;;;21.30;87.43
10988;BME280;5547;42.672;23.230;2023-09-19T10:15:25;93518.81;;;21.12;85.24
10988;BME280;5547;42.672;23.230;2023-09-19T10:18:27;93545.59;;;21.40;80.36
10988;BME280;5547;42.672;23.230;2023-09-19T10:21:29;93582.31;;;21.32;83.94
10988;BME280;5547;42.672;23.230;2023-09-19T10:24:30;93585.16;;;22.02;77.60
10988;BME280;5547;42.672;23.230;2023-09-19T10:27:35;93542.31;;;21.36;81.03
10988;BME280;5547;42.672;23.230;2023-09-19T10:30:40;93560.59;;;21.26;81.84
10988;BME280;5547;42.672;23.230;2023-09-19T10:33:45;93570.88;;;21.22;84.16
10988;BME280;5547;42.672;23.230;2023-09-19T10:36:51;93555.63;;;20.80;87.10
10988;BME280;5547;42.672;23.230;2023-09-19T10:39:52;93516.38;;;20.70;88.42
10988;BME280;5547;42.672;23.230;2023-09-19T10:42:53;93559.28;;;21.07;87.79
10988;BME280;5547;42.672;23.230;2023-09-19T10:46:02;93558.72;;;21.62;78.82
10988;BME280;5547;42.672;23.230;2023-09-19T10:49:04;93559.28;;;21.66;78.91
10988;BME280;5547;42.672;23.230;2023-09-19T10:52:05;93556.81;;;21.83;80.13
10988;BME280;5547;42.672;23.230;2023-09-19T10:55:08;93554.81;;;21.98;78.81
10988;BME280;5547;42.672;23.230;2023-09-19T10:58:28;93521.50;;;22.13;75.08
10988;BME280;5547;42.672;23.230;2023-09-19T11:01:46;93515.34;;;22.12;74.57
10988;BME280;5547;42.672;23.230;2023-09-19T11:04:51;93550.88;;;22.35;76.53
10988;BME280;5547;42.672;23.230;2023-09-19T11:07:58;93549.13;;;21.96;77.72
10988;BME280;5547;42.672;23.230;2023-09-19T11:14:41;93550.25;;;21.90;78.52
10988;BME280;5547;42.672;23.230;2023-09-19T11:17:42;93526.50;;;21.99;75.52
10988;BME280;5547;42.672;23.230;2023-09-19T11:20:46;93543.59;;;21.70;78.00
10988;BME280;5547;42.672;23.230;2023-09-19T11:27:12;93544.63;;;21.73;79.79
10988;BME280;5547;42.672;23.230;2023-09-19T11:30:26;93513.97;;;21.81;77.57
10988;BME280;5547;42.672;23.230;2023-09-19T11:33:31;93469.59;;;21.08;76.45
10988;BME280;5547;42.672;23.230;2023-09-19T11:36:36;93499.38;;;21.58;77.24
10988;BME280;5547;42.672;23.230;2023-09-19T11:39:36;93454.69;;;21.84;76.19
10988;BME280;5547;42.672;23.230;2023-09-19T11:42:45;93444.03;;;21.09;78.05
10988;BME280;5547;42.672;23.230;2023-09-19T11:49:07;93507.06;;;21.80;81.43
10988;BME280;5547;42.672;23.230;2023-09-19T11:52:09;93503.44;;;22.24;74.98
10988;BME280;5547;42.672;23.230;2023-09-19T11:55:10;93492.75;;;22.36;73.79
10988;BME280;5547;42.672;23.230;2023-09-19T11:58:12;93483.84;;;22.15;74.30
10988;BME280;5547;42.672;23.230;2023-09-19T12:01:25;93494.88;;;22.11;76.24
10988;BME280;5547;42.672;23.230;2023-09-19T12:04:38;93495.16;;;22.13;77.19
10988;BME280;5547;42.672;23.230;2023-09-19T12:07:43;93433.25;;;21.45;80.28
10988;BME280;5547;42.672;23.230;2023-09-19T12:10:49;93470.16;;;21.83;80.24
10988;BME280;5547;42.672;23.230;2023-09-19T12:13:51;93468.59;;;21.76;78.78
10988;BME280;5547;42.672;23.230;2023-09-19T12:16:54;93460.88;;;21.69;80.33
10988;BME280;5547;42.672;23.230;2023-09-19T12:19:56;93424.59;;;21.40;84.11
10988;BME280;5547;42.672;23.230;2023-09-19T12:22:57;93442.50;;;21.73;83.58
10988;BME280;5547;42.672;23.230;2023-09-19T12:25:57;93439.09;;;21.78;81.92
10988;BME280;5547;42.672;23.230;2023-09-19T12:29:00;93447.63;;;21.92;84.89
10988;BME280;5547;42.672;23.230;2023-09-19T12:32:03;93436.81;;;22.12;78.41
10988;BME280;5547;42.672;23.230;2023-09-19T12:35:04;93410.81;;;21.79;81.95
10988;BME280;5547;42.672;23.230;2023-09-19T12:38:10;93435.06;;;21.89;80.43
10988;BME280;5547;42.672;23.230;2023-09-19T12:41:12;93422.03;;;22.13;79.55
10988;BME280;5547;42.672;23.230;2023-09-19T12:44:13;93440.22;;;22.28;81.38
10988;BME280;5547;42.672;23.230;2023-09-19T12:47:16;93441.84;;;22.45;78.42
10988;BME280;5547;42.672;23.230;2023-09-19T12:50:20;93433.56;;;22.55;76.31
10988;BME280;5547;42.672;23.230;2023-09-19T12:53:29;93410.53;;;22.18;78.98
10988;BME280;5547;42.672;23.230;2023-09-19T12:56:39;93404.13;;;21.95;80.13
10988;BME280;5547;42.672;23.230;2023-09-19T12:59:41;93324.91;;;21.54;82.69
10988;BME280;5547;42.672;23.230;2023-09-19T13:06:35;93425.00;;;22.15;74.69
10988;BME280;5547;42.672;23.230;2023-09-19T13:09:38;93436.84;;;22.38;74.04
10988;BME280;5547;42.672;23.230;2023-09-19T13:12:39;93431.13;;;22.31;77.62
10988;BME280;5547;42.672;23.230;2023-09-19T13:15:52;93343.84;;;21.74;76.99
10988;BME280;5547;42.672;23.230;2023-09-19T13:18:54;93392.19;;;22.28;75.13
10988;BME280;5547;42.672;23.230;2023-09-19T13:21:57;93408.81;;;22.41;80.91
10988;BME280;5547;42.672;23.230;2023-09-19T13:24:57;93385.75;;;22.26;75.86
10988;BME280;5547;42.672;23.230;2023-09-19T13:27:59;93402.59;;;22.35;78.71
10988;BME280;5547;42.672;23.230;2023-09-19T13:31:00;93405.59;;;22.43;77.85
10988;BME280;5547;42.672;23.230;2023-09-19T13:34:01;93408.47;;;22.34;78.25
10988;BME280;5547;42.672;23.230;2023-09-19T13:37:02;93371.09;;;21.91;78.53
10988;BME280;5547;42.672;23.230;2023-09-19T13:40:05;93327.56;;;21.33;79.97
10988;BME280;5547;42.672;23.230;2023-09-19T13:43:05;93389.06;;;21.94;77.44
10988;BME280;5547;42.672;23.230;2023-09-19T13:46:07;93397.31;;;22.06;78.46
10988;BME280;5547;42.672;23.230;2023-09-19T13:49:07;93403.63;;;21.97;80.98
10988;BME280;5547;42.672;23.230;2023-09-19T13:52:08;93360.94;;;21.66;81.16
10988;BME280;5547;42.672;23.230;2023-09-19T13:55:09;93385.31;;;21.86;83.31
10988;BME280;5547;42.672;23.230;2023-09-19T13:58:09;93401.72;;;22.03;83.47
10988;BME280;5547;42.672;23.230;2023-09-19T14:01:12;93392.06;;;21.96;81.63
10988;BME280;5547;42.672;23.230;2023-09-19T14:04:13;93370.25;;;21.85;82.71
10988;BME280;5547;42.672;23.230;2023-09-19T14:07:16;93399.03;;;22.23;81.63
10988;BME280;5547;42.672;23.230;2023-09-19T14:10:17;93407.09;;;22.44;77.63
10988;BME280;5547;42.672;23.230;2023-09-19T14:13:18;93305.28;;;21.59;79.48
10988;BME280;5547;42.672;23.230;2023-09-19T14:16:20;93389.31;;;22.17;78.77
10988;BME280;5547;42.672;23.230;2023-09-19T14:19:22;93406.25;;;22.32;79.69
10988;BME280;5547;42.672;23.230;2023-09-19T14:22:22;93397.97;;;22.41;80.27
10988;BME280;5547;42.672;23.230;2023-09-19T14:25:23;93395.94;;;22.36;81.11
10988;BME280;5547;42.672;23.230;2023-09-19T14:28:23;93375.97;;;22.34;78.73
10988;BME280;5547;42.672;23.230;2023-09-19T14:31:25;93366.25;;;22.01;83.17
10988;BME280;5547;42.672;23.230;2023-09-19T14:34:26;93276.84;;;21.28;82.65
10988;BME280;5547;42.672;23.230;2023-09-19T14:37:26;93372.38;;;21.96;82.03
10988;BME280;5547;42.672;23.230;2023-09-19T14:40:28;93308.66;;;21.54;81.08
10988;BME280;5547;42.672;23.230;2023-09-19T14:43:29;93376.53;;;21.97;84.17
10988;BME280;5547;42.672;23.230;2023-09-19T14:46:30;93375.69;;;21.85;83.90
10988;BME280;5547;42.672;23.230;2023-09-19T14:49:33;93372.38;;;21.75;85.94
10988;BME280;5547;42.672;23.230;2023-09-19T14:52:35;93373.84;;;21.76;85.31
10988;BME280;5547;42.672;23.230;2023-09-19T14:55:37;93346.75;;;21.50;88.91
10988;BME280;5547;42.672;23.230;2023-09-19T14:58:41;93359.81;;;21.52;87.95
10988;BME280;5547;42.672;23.230;2023-09-19T15:01:42;93281.56;;;20.92;90.51
10988;BME280;5547;42.672;23.230;2023-09-19T15:04:43;93314.59;;;21.17;92.40
10988;BME280;5547;42.672;23.230;2023-09-19T15:07:44;93334.88;;;21.27;91.74
10988;BME280;5547;42.672;23.230;2023-09-19T15:10:50;93345.44;;;21.46;90.73
10988;BME280;5547;42.672;23.230;2023-09-19T15:13:52;93358.31;;;21.51;92.04
10988;BME280;5547;42.672;23.230;2023-09-19T15:16:54;93349.66;;;21.47;94.90
10988;BME280;5547;42.672;23.230;2023-09-19T15:19:54;93326.06;;;21.32;95.02
10988;BME280;5547;42.672;23.230;2023-09-19T15:22:55;93303.22;;;21.13;94.86
10988;BME280;5547;42.672;23.230;2023-09-19T15:25:56;93317.56;;;21.19;96.74
10988;BME280;5547;42.672;23.230;2023-09-19T15:28:57;93325.94;;;21.21;96.92
10988;BME280;5547;42.672;23.230;2023-09-19T15:31:57;93312.13;;;20.98;97.84
10988;BME280;5547;42.672;23.230;2023-09-19T15:35:02;93353.47;;;21.19;97.78
10988;BME280;5547;42.672;23.230;2023-09-19T15:38:03;93317.78;;;20.80;98.50
10988;BME280;5547;42.672;23.230;2023-09-19T15:41:04;93355.84;;;20.97;100.00
10988;BME280;5547;42.672;23.230;2023-09-19T15:44:11;93360.91;;;20.89;100.00
10988;BME280;5547;42.672;23.230;2023-09-19T15:47:12;93340.06;;;20.60;100.00
10988;BME280;5547;42.672;23.230;2023-09-19T15:50:13;93327.97;;;20.41;100.00
10988;BME280;5547;42.672;23.230;2023-09-19T15:53:15;93370.97;;;20.44;100.00
10988;BME280;5547;42.672;23.230;2023-09-19T15:56:18;93369.97;;;20.27;100.00
10988;BME280;5547;42.672;23.230;2023-09-19T15:59:18;93367.44;;;20.08;100.00
10988;BME280;5547;42.672;23.230;2023-09-19T16:02:18;93366.66;;;19.93;100.00
10988;BME280;5547;42.672;23.230;2023-09-19T16:05:19;93368.41;;;19.81;100.00
10988;BME280;5547;42.672;23.230;2023-09-19T16:08:19;93350.50;;;19.45;100.00
10988;BME280;5547;42.672;23.230;2023-09-19T16:11:20;93349.28;;;19.22;100.00
10988;BME280;5547;42.672;23.230;2023-09-19T16:14:20;93300.59;;;18.68;100.00
10988;BME280;5547;42.672;23.230;2023-09-19T16:17:21;93382.06;;;18.96;100.00
10988;BME280;5547;42.672;23.230;2023-09-19T16:20:21;93322.88;;;18.35;100.00
10988;BME280;5547;42.672;23.230;2023-09-19T16:23:23;93346.22;;;18.29;100.00
10988;BME280;5547;42.672;23.230;2023-09-19T16:26:25;93361.34;;;18.17;100.00